sensor_id;sensor_type;location;lat;lon;timestamp;P1;durP1;ratioP1;P2;durP2;ratioP2
78744;SDS011;68064;53.100;8.824;2023-08-21T00:00:38;5.18;;;0.32;;
78744;SDS011;68064;53.100;8.824;2023-08-21T00:01:39;4.82;;;0.70;;
78744;SDS011;68064;53.100;8.824;2023-08-21T00:02:42;4.47;;;0.50;;
78744;SDS011;68064;53.100;8.824;2023-08-21T00:03:43;6.20;;;0.63;;
78744;SDS011;68064;53.100;8.824;2023-08-21T00:04:44;5.38;;;0.50;;
78744;SDS011;68064;53.100;8.824;2023-08-21T00:06:46;6.00;;;0.65;;
78744;SDS011;68064;53.100;8.824;2023-08-21T00:08:48;4.30;;;0.30;;
78744;SDS011;68064;53.100;8.824;2023-08-21T00:10:49;5.45;;;0.43;;
78744;SDS011;68064;53.100;8.824;2023-08-21T00:11:51;2.15;;;0.30;;
78744;SDS011;68064;53.100;8.824;2023-08-21T00:12:52;4.20;;;0.28;;
78744;SDS011;68064;53.100;8.824;2023-08-21T00:14:54;4.35;;;0.82;;
78744;SDS011;68064;53.100;8.824;2023-08-21T00:15:55;2.97;;;0.60;;
78744;SDS011;68064;53.100;8.824;2023-08-21T00:16:56;2.30;;;0.25;;
78744;SDS011;68064;53.100;8.824;2023-08-21T00:17:58;4.43;;;0.35;;
78744;SDS011;68064;53.100;8.824;2023-08-21T00:18:59;2.63;;;0.22;;
78744;SDS011;68064;53.100;8.824;2023-08-21T00:21:01;4.40;;;0.60;;
78744;SDS011;68064;53.100;8.824;2023-08-21T00:22:03;5.45;;;0.50;;
78744;SDS011;68064;53.100;8.824;2023-08-21T00:23:04;3.50;;;0.50;;
78744;SDS011;68064;53.100;8.824;2023-08-21T00:25:06;4.18;;;0.40;;
78744;SDS011;68064;53.100;8.824;2023-08-21T00:26:07;4.88;;;0.22;;
78744;SDS011;68064;53.100;8.824;2023-08-21T00:27:08;3.53;;;0.40;;
78744;SDS011;68064;53.100;8.824;2023-08-21T00:28:10;3.15;;;0.28;;
78744;SDS011;68064;53.100;8.824;2023-08-21T00:29:11;4.00;;;0.32;;
78744;SDS011;68064;53.100;8.824;2023-08-21T00:30:12;4.40;;;0.28;;
78744;SDS011;68064;53.100;8.824;2023-08-21T00:31:13;5.03;;;0.63;;
78744;SDS011;68064;53.100;8.824;2023-08-21T00:32:14;5.20;;;0.47;;
78744;SDS011;68064;53.100;8.824;2023-08-21T00:33:17;3.25;;;0.40;;
78744;SDS011;68064;53.100;8.824;2023-08-21T00:34:18;4.70;;;0.60;;
78744;SDS011;68064;53.100;8.824;2023-08-21T00:36:20;5.30;;;0.35;;
78744;SDS011;68064;53.100;8.824;2023-08-21T00:38:22;4.07;;;0.50;;
78744;SDS011;68064;53.100;8.824;2023-08-21T00:39:23;3.38;;;0.30;;
78744;SDS011;68064;53.100;8.824;2023-08-21T00:40:24;3.85;;;0.43;;
78744;SDS011;68064;53.100;8.824;2023-08-21T00:42:27;4.63;;;0.38;;
78744;SDS011;68064;53.100;8.824;2023-08-21T00:43:28;2.72;;;0.77;;
78744;SDS011;68064;53.100;8.824;2023-08-21T00:44:29;3.65;;;0.40;;
78744;SDS011;68064;53.100;8.824;2023-08-21T00:45:30;5.28;;;0.57;;
78744;SDS011;68064;53.100;8.824;2023-08-21T00:46:31;5.28;;;0.40;;
78744;SDS011;68064;53.100;8.824;2023-08-21T00:47:33;3.90;;;0.22;;
78744;SDS011;68064;53.100;8.824;2023-08-21T00:49:36;4.88;;;0.50;;
78744;SDS011;68064;53.100;8.824;2023-08-21T00:50:38;4.50;;;0.35;;
78744;SDS011;68064;53.100;8.824;2023-08-21T00:51:39;4.38;;;0.63;;
78744;SDS011;68064;53.100;8.824;2023-08-21T00:52:40;3.88;;;0.40;;
78744;SDS011;68064;53.100;8.824;2023-08-21T00:53:45;3.35;;;0.35;;
78744;SDS011;68064;53.100;8.824;2023-08-21T00:55:47;4.93;;;0.40;;
78744;SDS011;68064;53.100;8.824;2023-08-21T00:56:48;4.15;;;0.47;;
78744;SDS011;68064;53.100;8.824;2023-08-21T00:57:49;4.47;;;0.43;;
78744;SDS011;68064;53.100;8.824;2023-08-21T00:59:51;3.47;;;0.55;;
78744;SDS011;68064;53.100;8.824;2023-08-21T01:00:52;5.15;;;0.45;;
78744;SDS011;68064;53.100;8.824;2023-08-21T01:01:54;5.05;;;0.52;;
78744;SDS011;68064;53.100;8.824;2023-08-21T01:02:56;4.57;;;0.45;;
78744;SDS011;68064;53.100;8.824;2023-08-21T01:03:58;4.40;;;0.52;;
78744;SDS011;68064;53.100;8.824;2023-08-21T01:04:59;4.15;;;0.32;;
78744;SDS011;68064;53.100;8.824;2023-08-21T01:06:00;5.22;;;0.43;;
78744;SDS011;68064;53.100;8.824;2023-08-21T01:07:02;5.30;;;0.43;;
78744;SDS011;68064;53.100;8.824;2023-08-21T01:08:03;7.10;;;0.30;;
78744;SDS011;68064;53.100;8.824;2023-08-21T01:09:12;4.55;;;0.57;;
78744;SDS011;68064;53.100;8.824;2023-08-21T01:10:20;5.18;;;0.60;;
78744;SDS011;68064;53.100;8.824;2023-08-21T01:11:27;3.42;;;0.43;;
78744;SDS011;68064;53.100;8.824;2023-08-21T01:12:43;4.90;;;0.47;;
78744;SDS011;68064;53.100;8.824;2023-08-21T01:13:55;5.63;;;0.60;;
78744;SDS011;68064;53.100;8.824;2023-08-21T01:15:04;3.80;;;0.30;;
78744;SDS011;68064;53.100;8.824;2023-08-21T01:16:07;5.25;;;0.30;;
78744;SDS011;68064;53.100;8.824;2023-08-21T01:17:09;3.55;;;0.45;;
78744;SDS011;68064;53.100;8.824;2023-08-21T01:18:13;4.07;;;0.40;;
78744;SDS011;68064;53.100;8.824;2023-08-21T01:19:19;3.67;;;0.50;;
78744;SDS011;68064;53.100;8.824;2023-08-21T01:20:26;5.47;;;0.35;;
78744;SDS011;68064;53.100;8.824;2023-08-21T01:21:28;4.15;;;0.73;;
78744;SDS011;68064;53.100;8.824;2023-08-21T01:22:35;2.53;;;0.50;;
78744;SDS011;68064;53.100;8.824;2023-08-21T01:23:40;4.43;;;0.38;;
78744;SDS011;68064;53.100;8.824;2023-08-21T01:24:41;3.80;;;0.30;;
78744;SDS011;68064;53.100;8.824;2023-08-21T01:25:42;3.78;;;0.28;;
78744;SDS011;68064;53.100;8.824;2023-08-21T01:26:43;4.45;;;0.60;;
78744;SDS011;68064;53.100;8.824;2023-08-21T01:27:45;3.88;;;0.32;;
78744;SDS011;68064;53.100;8.824;2023-08-21T01:28:48;3.40;;;0.63;;
78744;SDS011;68064;53.100;8.824;2023-08-21T01:29:50;3.58;;;0.40;;
78744;SDS011;68064;53.100;8.824;2023-08-21T01:30:52;4.38;;;0.30;;
78744;SDS011;68064;53.100;8.824;2023-08-21T01:32:01;4.22;;;0.45;;
78744;SDS011;68064;53.100;8.824;2023-08-21T01:33:08;3.17;;;0.30;;
78744;SDS011;68064;53.100;8.824;2023-08-21T01:34:13;2.78;;;0.55;;
78744;SDS011;68064;53.100;8.824;2023-08-21T01:35:16;4.85;;;0.50;;
78744;SDS011;68064;53.100;8.824;2023-08-21T01:36:17;5.10;;;0.80;;
78744;SDS011;68064;53.100;8.824;2023-08-21T01:37:19;4.20;;;0.40;;
78744;SDS011;68064;53.100;8.824;2023-08-21T01:38:20;3.00;;;0.30;;
78744;SDS011;68064;53.100;8.824;2023-08-21T01:39:23;6.15;;;0.30;;
78744;SDS011;68064;53.100;8.824;2023-08-21T01:40:25;3.53;;;0.30;;
78744;SDS011;68064;53.100;8.824;2023-08-21T01:41:26;4.20;;;0.50;;
78744;SDS011;68064;53.100;8.824;2023-08-21T01:42:27;3.80;;;0.65;;
78744;SDS011;68064;53.100;8.824;2023-08-21T01:44:29;4.18;;;0.28;;
78744;SDS011;68064;53.100;8.824;2023-08-21T01:45:30;3.00;;;0.47;;
78744;SDS011;68064;53.100;8.824;2023-08-21T01:47:32;3.78;;;0.32;;
78744;SDS011;68064;53.100;8.824;2023-08-21T01:48:33;4.47;;;0.52;;
78744;SDS011;68064;53.100;8.824;2023-08-21T01:49:34;3.83;;;0.63;;
78744;SDS011;68064;53.100;8.824;2023-08-21T01:51:36;2.80;;;0.50;;
78744;SDS011;68064;53.100;8.824;2023-08-21T01:52:37;3.53;;;0.20;;
78744;SDS011;68064;53.100;8.824;2023-08-21T01:53:38;5.22;;;0.50;;
78744;SDS011;68064;53.100;8.824;2023-08-21T01:54:41;2.72;;;0.47;;
78744;SDS011;68064;53.100;8.824;2023-08-21T01:55:42;3.72;;;0.32;;
78744;SDS011;68064;53.100;8.824;2023-08-21T01:56:43;5.60;;;0.40;;
78744;SDS011;68064;53.100;8.824;2023-08-21T01:57:44;5.45;;;0.40;;
78744;SDS011;68064;53.100;8.824;2023-08-21T01:58:45;3.03;;;0.35;;
78744;SDS011;68064;53.100;8.824;2023-08-21T02:00:47;4.82;;;0.85;;
78744;SDS011;68064;53.100;8.824;2023-08-21T02:01:48;2.95;;;0.32;;
78744;SDS011;68064;53.100;8.824;2023-08-21T02:02:49;4.55;;;0.73;;
78744;SDS011;68064;53.100;8.824;2023-08-21T02:04:51;4.20;;;0.30;;
78744;SDS011;68064;53.100;8.824;2023-08-21T02:05:55;3.88;;;0.85;;
78744;SDS011;68064;53.100;8.824;2023-08-21T02:06:56;4.30;;;0.65;;
78744;SDS011;68064;53.100;8.824;2023-08-21T02:07:57;3.72;;;0.32;;
78744;SDS011;68064;53.100;8.824;2023-08-21T02:10:00;5.47;;;0.50;;
78744;SDS011;68064;53.100;8.824;2023-08-21T02:11:01;3.80;;;0.22;;
78744;SDS011;68064;53.100;8.824;2023-08-21T02:13:04;4.75;;;0.22;;
78744;SDS011;68064;53.100;8.824;2023-08-21T02:14:05;3.35;;;0.32;;
78744;SDS011;68064;53.100;8.824;2023-08-21T02:15:06;2.65;;;0.30;;
78744;SDS011;68064;53.100;8.824;2023-08-21T02:16:08;3.10;;;0.30;;
78744;SDS011;68064;53.100;8.824;2023-08-21T02:18:10;2.58;;;0.73;;
78744;SDS011;68064;53.100;8.824;2023-08-21T02:19:11;4.40;;;0.68;;
78744;SDS011;68064;53.100;8.824;2023-08-21T02:21:13;3.33;;;0.38;;
78744;SDS011;68064;53.100;8.824;2023-08-21T02:22:14;3.17;;;0.35;;
78744;SDS011;68064;53.100;8.824;2023-08-21T02:23:15;3.50;;;0.25;;
78744;SDS011;68064;53.100;8.824;2023-08-21T02:24:16;5.68;;;0.38;;
78744;SDS011;68064;53.100;8.824;2023-08-21T02:25:19;3.30;;;0.20;;
78744;SDS011;68064;53.100;8.824;2023-08-21T02:26:20;5.20;;;0.38;;
78744;SDS011;68064;53.100;8.824;2023-08-21T02:27:21;5.63;;;0.43;;
78744;SDS011;68064;53.100;8.824;2023-08-21T02:28:22;3.42;;;0.40;;
78744;SDS011;68064;53.100;8.824;2023-08-21T02:30:24;3.55;;;0.30;;
78744;SDS011;68064;53.100;8.824;2023-08-21T02:31:25;2.42;;;0.20;;
78744;SDS011;68064;53.100;8.824;2023-08-21T02:32:26;3.65;;;0.47;;
78744;SDS011;68064;53.100;8.824;2023-08-21T02:33:27;2.95;;;0.32;;
78744;SDS011;68064;53.100;8.824;2023-08-21T02:34:28;3.65;;;0.55;;
78744;SDS011;68064;53.100;8.824;2023-08-21T02:36:30;2.85;;;0.20;;
78744;SDS011;68064;53.100;8.824;2023-08-21T02:38:32;4.63;;;0.40;;
78744;SDS011;68064;53.100;8.824;2023-08-21T02:39:34;4.90;;;0.30;;
78744;SDS011;68064;53.100;8.824;2023-08-21T02:40:36;3.65;;;0.73;;
78744;SDS011;68064;53.100;8.824;2023-08-21T02:41:37;2.75;;;0.60;;
78744;SDS011;68064;53.100;8.824;2023-08-21T02:42:38;3.13;;;0.30;;
78744;SDS011;68064;53.100;8.824;2023-08-21T02:43:39;5.15;;;0.40;;
78744;SDS011;68064;53.100;8.824;2023-08-21T02:44:41;2.95;;;0.40;;
78744;SDS011;68064;53.100;8.824;2023-08-21T02:46:42;2.65;;;0.25;;
78744;SDS011;68064;53.100;8.824;2023-08-21T02:48:44;3.17;;;0.30;;
78744;SDS011;68064;53.100;8.824;2023-08-21T02:49:45;5.47;;;0.30;;
78744;SDS011;68064;53.100;8.824;2023-08-21T02:50:46;3.83;;;0.45;;
78744;SDS011;68064;53.100;8.824;2023-08-21T02:51:49;5.80;;;0.52;;
78744;SDS011;68064;53.100;8.824;2023-08-21T02:53:50;5.63;;;0.40;;
78744;SDS011;68064;53.100;8.824;2023-08-21T02:55:54;3.90;;;0.47;;
78744;SDS011;68064;53.100;8.824;2023-08-21T02:56:55;3.53;;;0.35;;
78744;SDS011;68064;53.100;8.824;2023-08-21T02:57:56;2.38;;;0.20;;
78744;SDS011;68064;53.100;8.824;2023-08-21T02:58:57;3.50;;;0.30;;
78744;SDS011;68064;53.100;8.824;2023-08-21T02:59:58;4.00;;;0.63;;
78744;SDS011;68064;53.100;8.824;2023-08-21T03:00:59;4.57;;;0.70;;
78744;SDS011;68064;53.100;8.824;2023-08-21T03:02:00;4.25;;;0.43;;
78744;SDS011;68064;53.100;8.824;2023-08-21T03:03:01;5.50;;;0.30;;
78744;SDS011;68064;53.100;8.824;2023-08-21T03:04:03;4.78;;;0.43;;
78744;SDS011;68064;53.100;8.824;2023-08-21T03:05:04;3.78;;;0.38;;
78744;SDS011;68064;53.100;8.824;2023-08-21T03:06:06;4.07;;;0.40;;
78744;SDS011;68064;53.100;8.824;2023-08-21T03:07:07;6.28;;;0.57;;
78744;SDS011;68064;53.100;8.824;2023-08-21T03:08:08;5.53;;;0.52;;
78744;SDS011;68064;53.100;8.824;2023-08-21T03:09:09;5.38;;;0.50;;
78744;SDS011;68064;53.100;8.824;2023-08-21T03:10:10;6.43;;;0.73;;
78744;SDS011;68064;53.100;8.824;2023-08-21T03:11:13;4.18;;;0.68;;
78744;SDS011;68064;53.100;8.824;2023-08-21T03:12:14;6.72;;;0.70;;
78744;SDS011;68064;53.100;8.824;2023-08-21T03:14:16;4.20;;;0.45;;
78744;SDS011;68064;53.100;8.824;2023-08-21T03:16:18;7.25;;;0.85;;
78744;SDS011;68064;53.100;8.824;2023-08-21T03:17:19;4.43;;;0.50;;
78744;SDS011;68064;53.100;8.824;2023-08-21T03:18:20;5.43;;;0.68;;
78744;SDS011;68064;53.100;8.824;2023-08-21T03:19:21;5.40;;;0.50;;
78744;SDS011;68064;53.100;8.824;2023-08-21T03:20:22;6.30;;;0.40;;
78744;SDS011;68064;53.100;8.824;2023-08-21T03:21:23;5.13;;;0.52;;
78744;SDS011;68064;53.100;8.824;2023-08-21T03:22:25;3.53;;;0.40;;
78744;SDS011;68064;53.100;8.824;2023-08-21T03:23:26;4.97;;;0.45;;
78744;SDS011;68064;53.100;8.824;2023-08-21T03:24:27;4.55;;;0.68;;
78744;SDS011;68064;53.100;8.824;2023-08-21T03:25:28;4.30;;;0.57;;
78744;SDS011;68064;53.100;8.824;2023-08-21T03:27:31;5.05;;;0.50;;
78744;SDS011;68064;53.100;8.824;2023-08-21T03:28:32;5.28;;;0.50;;
78744;SDS011;68064;53.100;8.824;2023-08-21T03:29:33;4.18;;;0.38;;
78744;SDS011;68064;53.100;8.824;2023-08-21T03:30:34;6.95;;;0.70;;
78744;SDS011;68064;53.100;8.824;2023-08-21T03:31:35;5.53;;;0.50;;
78744;SDS011;68064;53.100;8.824;2023-08-21T03:32:36;4.00;;;0.55;;
78744;SDS011;68064;53.100;8.824;2023-08-21T03:33:37;8.18;;;0.65;;
78744;SDS011;68064;53.100;8.824;2023-08-21T03:34:39;5.20;;;0.40;;
78744;SDS011;68064;53.100;8.824;2023-08-21T03:35:40;4.90;;;0.50;;
78744;SDS011;68064;53.100;8.824;2023-08-21T03:36:41;5.20;;;0.70;;
78744;SDS011;68064;53.100;8.824;2023-08-21T03:37:42;6.78;;;0.60;;
78744;SDS011;68064;53.100;8.824;2023-08-21T03:38:43;4.30;;;0.50;;
78744;SDS011;68064;53.100;8.824;2023-08-21T03:39:44;4.93;;;0.50;;
78744;SDS011;68064;53.100;8.824;2023-08-21T03:40:45;6.97;;;0.60;;
78744;SDS011;68064;53.100;8.824;2023-08-21T03:41:48;5.40;;;0.55;;
78744;SDS011;68064;53.100;8.824;2023-08-21T03:42:49;4.38;;;0.43;;
78744;SDS011;68064;53.100;8.824;2023-08-21T03:43:50;4.40;;;0.52;;
78744;SDS011;68064;53.100;8.824;2023-08-21T03:44:51;4.15;;;0.40;;
78744;SDS011;68064;53.100;8.824;2023-08-21T03:45:52;4.93;;;0.50;;
78744;SDS011;68064;53.100;8.824;2023-08-21T03:46:53;3.83;;;0.50;;
78744;SDS011;68064;53.100;8.824;2023-08-21T03:47:54;5.53;;;0.60;;
78744;SDS011;68064;53.100;8.824;2023-08-21T03:48:55;5.57;;;0.77;;
78744;SDS011;68064;53.100;8.824;2023-08-21T03:49:56;4.07;;;0.45;;
78744;SDS011;68064;53.100;8.824;2023-08-21T03:50:57;4.30;;;0.45;;
78744;SDS011;68064;53.100;8.824;2023-08-21T03:51:59;7.28;;;0.93;;
78744;SDS011;68064;53.100;8.824;2023-08-21T03:53:00;7.07;;;0.50;;
78744;SDS011;68064;53.100;8.824;2023-08-21T03:54:01;5.28;;;0.57;;
78744;SDS011;68064;53.100;8.824;2023-08-21T03:55:02;5.22;;;0.70;;
78744;SDS011;68064;53.100;8.824;2023-08-21T03:56:03;3.80;;;0.50;;
78744;SDS011;68064;53.100;8.824;2023-08-21T03:57:06;5.82;;;0.47;;
78744;SDS011;68064;53.100;8.824;2023-08-21T03:58:07;5.53;;;0.80;;
78744;SDS011;68064;53.100;8.824;2023-08-21T03:59:08;4.30;;;0.55;;
78744;SDS011;68064;53.100;8.824;2023-08-21T04:00:09;4.88;;;0.50;;
78744;SDS011;68064;53.100;8.824;2023-08-21T04:01:11;4.93;;;0.47;;
78744;SDS011;68064;53.100;8.824;2023-08-21T04:02:12;3.67;;;0.32;;
78744;SDS011;68064;53.100;8.824;2023-08-21T04:03:13;4.40;;;0.30;;
78744;SDS011;68064;53.100;8.824;2023-08-21T04:04:14;4.75;;;0.77;;
78744;SDS011;68064;53.100;8.824;2023-08-21T04:05:15;5.40;;;0.50;;
78744;SDS011;68064;53.100;8.824;2023-08-21T04:06:16;4.25;;;0.32;;
78744;SDS011;68064;53.100;8.824;2023-08-21T04:07:17;4.68;;;0.50;;
78744;SDS011;68064;53.100;8.824;2023-08-21T04:08:18;3.05;;;0.30;;
78744;SDS011;68064;53.100;8.824;2023-08-21T04:10:20;5.10;;;0.38;;
78744;SDS011;68064;53.100;8.824;2023-08-21T04:11:21;5.38;;;0.70;;
78744;SDS011;68064;53.100;8.824;2023-08-21T04:12:24;3.78;;;0.40;;
78744;SDS011;68064;53.100;8.824;2023-08-21T04:13:25;7.68;;;0.80;;
78744;SDS011;68064;53.100;8.824;2023-08-21T04:14:26;6.53;;;0.60;;
78744;SDS011;68064;53.100;8.824;2023-08-21T04:15:27;4.85;;;0.73;;
78744;SDS011;68064;53.100;8.824;2023-08-21T04:16:28;5.53;;;0.60;;
78744;SDS011;68064;53.100;8.824;2023-08-21T04:17:29;4.75;;;1.05;;
78744;SDS011;68064;53.100;8.824;2023-08-21T04:18:30;3.58;;;0.40;;
78744;SDS011;68064;53.100;8.824;2023-08-21T04:19:31;4.15;;;0.40;;
78744;SDS011;68064;53.100;8.824;2023-08-21T04:20:32;3.63;;;0.40;;
78744;SDS011;68064;53.100;8.824;2023-08-21T04:21:33;4.18;;;0.40;;
78744;SDS011;68064;53.100;8.824;2023-08-21T04:22:34;4.63;;;0.65;;
78744;SDS011;68064;53.100;8.824;2023-08-21T04:23:35;6.75;;;0.57;;
78744;SDS011;68064;53.100;8.824;2023-08-21T04:25:37;4.10;;;0.30;;
78744;SDS011;68064;53.100;8.824;2023-08-21T04:26:38;4.05;;;0.40;;
78744;SDS011;68064;53.100;8.824;2023-08-21T04:27:41;5.80;;;0.52;;
78744;SDS011;68064;53.100;8.824;2023-08-21T04:28:42;4.20;;;0.32;;
78744;SDS011;68064;53.100;8.824;2023-08-21T04:29:43;4.50;;;0.80;;
78744;SDS011;68064;53.100;8.824;2023-08-21T04:30:44;5.75;;;0.88;;
78744;SDS011;68064;53.100;8.824;2023-08-21T04:31:45;5.00;;;0.45;;
78744;SDS011;68064;53.100;8.824;2023-08-21T04:32:46;5.78;;;0.32;;
78744;SDS011;68064;53.100;8.824;2023-08-21T04:33:48;3.40;;;0.30;;
78744;SDS011;68064;53.100;8.824;2023-08-21T04:34:49;4.18;;;0.50;;
78744;SDS011;68064;53.100;8.824;2023-08-21T04:35:50;4.13;;;0.70;;
78744;SDS011;68064;53.100;8.824;2023-08-21T04:36:51;3.78;;;0.65;;
78744;SDS011;68064;53.100;8.824;2023-08-21T04:37:52;6.40;;;0.52;;
78744;SDS011;68064;53.100;8.824;2023-08-21T04:39:54;4.50;;;0.40;;
78744;SDS011;68064;53.100;8.824;2023-08-21T04:40:55;4.93;;;0.40;;
78744;SDS011;68064;53.100;8.824;2023-08-21T04:41:56;3.72;;;0.35;;
78744;SDS011;68064;53.100;8.824;2023-08-21T04:42:58;5.00;;;0.73;;
78744;SDS011;68064;53.100;8.824;2023-08-21T04:44:19;5.07;;;0.32;;
78744;SDS011;68064;53.100;8.824;2023-08-21T04:45:30;4.38;;;0.47;;
78744;SDS011;68064;53.100;8.824;2023-08-21T04:46:31;4.45;;;0.50;;
78744;SDS011;68064;53.100;8.824;2023-08-21T04:47:32;5.05;;;0.63;;
78744;SDS011;68064;53.100;8.824;2023-08-21T04:48:33;3.92;;;0.40;;
78744;SDS011;68064;53.100;8.824;2023-08-21T04:49:34;5.88;;;0.65;;
78744;SDS011;68064;53.100;8.824;2023-08-21T04:50:36;4.30;;;0.40;;
78744;SDS011;68064;53.100;8.824;2023-08-21T04:51:37;5.28;;;0.45;;
78744;SDS011;68064;53.100;8.824;2023-08-21T04:52:38;3.85;;;0.43;;
78744;SDS011;68064;53.100;8.824;2023-08-21T04:53:39;3.17;;;0.30;;
78744;SDS011;68064;53.100;8.824;2023-08-21T04:54:40;4.22;;;0.40;;
78744;SDS011;68064;53.100;8.824;2023-08-21T04:55:42;5.18;;;0.40;;
78744;SDS011;68064;53.100;8.824;2023-08-21T04:56:43;4.80;;;0.65;;
78744;SDS011;68064;53.100;8.824;2023-08-21T04:57:44;3.50;;;0.43;;
78744;SDS011;68064;53.100;8.824;2023-08-21T04:58:46;4.35;;;0.85;;
78744;SDS011;68064;53.100;8.824;2023-08-21T04:59:48;5.13;;;0.50;;
78744;SDS011;68064;53.100;8.824;2023-08-21T05:00:49;5.03;;;0.45;;
78744;SDS011;68064;53.100;8.824;2023-08-21T05:01:50;5.43;;;0.38;;
78744;SDS011;68064;53.100;8.824;2023-08-21T05:02:51;4.07;;;0.73;;
78744;SDS011;68064;53.100;8.824;2023-08-21T05:03:52;5.45;;;0.35;;
78744;SDS011;68064;53.100;8.824;2023-08-21T05:04:53;4.78;;;0.60;;
78744;SDS011;68064;53.100;8.824;2023-08-21T05:05:54;5.07;;;0.40;;
78744;SDS011;68064;53.100;8.824;2023-08-21T05:06:55;6.63;;;1.25;;
78744;SDS011;68064;53.100;8.824;2023-08-21T05:08:57;4.82;;;0.63;;
78744;SDS011;68064;53.100;8.824;2023-08-21T05:09:58;5.88;;;0.50;;
78744;SDS011;68064;53.100;8.824;2023-08-21T05:11:00;5.90;;;0.63;;
78744;SDS011;68064;53.100;8.824;2023-08-21T05:12:02;4.32;;;0.50;;
78744;SDS011;68064;53.100;8.824;2023-08-21T05:13:03;5.28;;;1.13;;
78744;SDS011;68064;53.100;8.824;2023-08-21T05:14:06;4.18;;;0.43;;
78744;SDS011;68064;53.100;8.824;2023-08-21T05:15:07;4.45;;;0.65;;
78744;SDS011;68064;53.100;8.824;2023-08-21T05:16:09;6.15;;;0.52;;
78744;SDS011;68064;53.100;8.824;2023-08-21T05:17:10;5.28;;;0.68;;
78744;SDS011;68064;53.100;8.824;2023-08-21T05:19:12;4.60;;;0.40;;
78744;SDS011;68064;53.100;8.824;2023-08-21T05:20:13;5.53;;;0.80;;
78744;SDS011;68064;53.100;8.824;2023-08-21T05:21:14;4.07;;;0.68;;
78744;SDS011;68064;53.100;8.824;2023-08-21T05:22:15;4.13;;;0.98;;
78744;SDS011;68064;53.100;8.824;2023-08-21T05:23:16;2.95;;;0.60;;
78744;SDS011;68064;53.100;8.824;2023-08-21T05:25:18;6.60;;;0.55;;
78744;SDS011;68064;53.100;8.824;2023-08-21T05:26:19;3.85;;;0.38;;
78744;SDS011;68064;53.100;8.824;2023-08-21T05:28:21;4.10;;;0.43;;
78744;SDS011;68064;53.100;8.824;2023-08-21T05:29:24;5.28;;;0.68;;
78744;SDS011;68064;53.100;8.824;2023-08-21T05:30:25;4.05;;;0.70;;
78744;SDS011;68064;53.100;8.824;2023-08-21T05:31:26;6.03;;;0.40;;
78744;SDS011;68064;53.100;8.824;2023-08-21T05:32:27;5.55;;;0.88;;
78744;SDS011;68064;53.100;8.824;2023-08-21T05:33:28;5.15;;;0.85;;
78744;SDS011;68064;53.100;8.824;2023-08-21T05:34:29;6.30;;;0.90;;
78744;SDS011;68064;53.100;8.824;2023-08-21T05:35:32;5.72;;;0.98;;
78744;SDS011;68064;53.100;8.824;2023-08-21T05:36:33;5.07;;;0.57;;
78744;SDS011;68064;53.100;8.824;2023-08-21T05:37:34;3.97;;;0.50;;
78744;SDS011;68064;53.100;8.824;2023-08-21T05:38:36;6.18;;;0.63;;
78744;SDS011;68064;53.100;8.824;2023-08-21T05:39:37;4.40;;;0.57;;
78744;SDS011;68064;53.100;8.824;2023-08-21T05:40:38;4.25;;;0.50;;
78744;SDS011;68064;53.100;8.824;2023-08-21T05:41:41;6.93;;;0.45;;
78744;SDS011;68064;53.100;8.824;2023-08-21T05:42:42;4.90;;;0.50;;
78744;SDS011;68064;53.100;8.824;2023-08-21T05:43:43;4.82;;;0.50;;
78744;SDS011;68064;53.100;8.824;2023-08-21T05:44:45;5.53;;;0.40;;
78744;SDS011;68064;53.100;8.824;2023-08-21T05:45:46;4.70;;;0.45;;
78744;SDS011;68064;53.100;8.824;2023-08-21T05:46:48;6.93;;;0.80;;
78744;SDS011;68064;53.100;8.824;2023-08-21T05:47:49;4.82;;;1.05;;
78744;SDS011;68064;53.100;8.824;2023-08-21T05:48:50;3.58;;;0.63;;
78744;SDS011;68064;53.100;8.824;2023-08-21T05:49:51;3.75;;;0.70;;
78744;SDS011;68064;53.100;8.824;2023-08-21T05:50:52;4.05;;;0.57;;
78744;SDS011;68064;53.100;8.824;2023-08-21T05:51:55;4.97;;;0.60;;
78744;SDS011;68064;53.100;8.824;2023-08-21T05:52:56;5.57;;;1.02;;
78744;SDS011;68064;53.100;8.824;2023-08-21T05:53:58;7.05;;;1.30;;
78744;SDS011;68064;53.100;8.824;2023-08-21T05:54:59;9.52;;;1.52;;
78744;SDS011;68064;53.100;8.824;2023-08-21T05:56:00;8.48;;;1.50;;
78744;SDS011;68064;53.100;8.824;2023-08-21T05:57:01;7.13;;;1.33;;
78744;SDS011;68064;53.100;8.824;2023-08-21T05:58:02;9.27;;;2.13;;
78744;SDS011;68064;53.100;8.824;2023-08-21T05:59:03;7.43;;;1.48;;
78744;SDS011;68064;53.100;8.824;2023-08-21T06:00:07;9.25;;;1.67;;
78744;SDS011;68064;53.100;8.824;2023-08-21T06:01:08;7.97;;;1.55;;
78744;SDS011;68064;53.100;8.824;2023-08-21T06:02:09;11.00;;;2.00;;
78744;SDS011;68064;53.100;8.824;2023-08-21T06:04:11;10.43;;;2.00;;
78744;SDS011;68064;53.100;8.824;2023-08-21T06:05:13;7.90;;;2.17;;
78744;SDS011;68064;53.100;8.824;2023-08-21T06:06:14;8.23;;;1.58;;
78744;SDS011;68064;53.100;8.824;2023-08-21T06:07:15;9.48;;;2.55;;
78744;SDS011;68064;53.100;8.824;2023-08-21T06:08:16;8.10;;;1.10;;
78744;SDS011;68064;53.100;8.824;2023-08-21T06:09:17;6.15;;;0.75;;
78744;SDS011;68064;53.100;8.824;2023-08-21T06:10:18;4.97;;;0.60;;
78744;SDS011;68064;53.100;8.824;2023-08-21T06:11:19;6.55;;;0.65;;
78744;SDS011;68064;53.100;8.824;2023-08-21T06:12:20;6.85;;;0.95;;
78744;SDS011;68064;53.100;8.824;2023-08-21T06:14:22;8.05;;;0.73;;
78744;SDS011;68064;53.100;8.824;2023-08-21T06:15:25;6.13;;;0.75;;
78744;SDS011;68064;53.100;8.824;2023-08-21T06:16:26;4.35;;;0.77;;
78744;SDS011;68064;53.100;8.824;2023-08-21T06:17:27;8.48;;;1.05;;
78744;SDS011;68064;53.100;8.824;2023-08-21T06:18:28;4.47;;;0.65;;
78744;SDS011;68064;53.100;8.824;2023-08-21T06:19:29;8.15;;;1.38;;
78744;SDS011;68064;53.100;8.824;2023-08-21T06:21:31;6.85;;;0.82;;
78744;SDS011;68064;53.100;8.824;2023-08-21T06:22:32;6.85;;;1.08;;
78744;SDS011;68064;53.100;8.824;2023-08-21T06:23:33;8.75;;;1.50;;
78744;SDS011;68064;53.100;8.824;2023-08-21T06:24:34;10.60;;;3.00;;
78744;SDS011;68064;53.100;8.824;2023-08-21T06:25:35;10.50;;;3.40;;
78744;SDS011;68064;53.100;8.824;2023-08-21T06:27:37;10.57;;;3.08;;
78744;SDS011;68064;53.100;8.824;2023-08-21T06:29:39;14.90;;;2.70;;
78744;SDS011;68064;53.100;8.824;2023-08-21T06:30:41;12.60;;;2.75;;
78744;SDS011;68064;53.100;8.824;2023-08-21T06:31:42;12.80;;;2.45;;
78744;SDS011;68064;53.100;8.824;2023-08-21T06:33:44;10.50;;;2.55;;
78744;SDS011;68064;53.100;8.824;2023-08-21T06:34:45;11.45;;;2.90;;
78744;SDS011;68064;53.100;8.824;2023-08-21T06:35:47;11.63;;;2.38;;
78744;SDS011;68064;53.100;8.824;2023-08-21T06:36:48;13.45;;;2.83;;
78744;SDS011;68064;53.100;8.824;2023-08-21T06:37:49;11.15;;;2.17;;
78744;SDS011;68064;53.100;8.824;2023-08-21T06:38:50;11.73;;;2.92;;
78744;SDS011;68064;53.100;8.824;2023-08-21T06:40:52;10.93;;;2.58;;
78744;SDS011;68064;53.100;8.824;2023-08-21T06:41:53;10.32;;;2.38;;
78744;SDS011;68064;53.100;8.824;2023-08-21T06:42:55;9.63;;;2.22;;
78744;SDS011;68064;53.100;8.824;2023-08-21T06:43:56;10.50;;;2.55;;
78744;SDS011;68064;53.100;8.824;2023-08-21T06:44:58;9.57;;;2.00;;
78744;SDS011;68064;53.100;8.824;2023-08-21T06:46:01;10.88;;;1.60;;
78744;SDS011;68064;53.100;8.824;2023-08-21T06:47:02;9.57;;;1.73;;
78744;SDS011;68064;53.100;8.824;2023-08-21T06:48:03;7.93;;;1.90;;
78744;SDS011;68064;53.100;8.824;2023-08-21T06:49:04;10.90;;;1.63;;
78744;SDS011;68064;53.100;8.824;2023-08-21T06:50:05;9.68;;;1.30;;
78744;SDS011;68064;53.100;8.824;2023-08-21T06:51:07;8.38;;;1.40;;
78744;SDS011;68064;53.100;8.824;2023-08-21T06:52:08;12.50;;;1.48;;
78744;SDS011;68064;53.100;8.824;2023-08-21T06:53:09;9.63;;;1.67;;
78744;SDS011;68064;53.100;8.824;2023-08-21T06:54:10;10.32;;;1.02;;
78744;SDS011;68064;53.100;8.824;2023-08-21T06:56:12;9.23;;;1.05;;
78744;SDS011;68064;53.100;8.824;2023-08-21T06:57:13;8.68;;;0.98;;
78744;SDS011;68064;53.100;8.824;2023-08-21T06:58:14;11.77;;;1.55;;